Aérodrome :
LOGIN :

S'inscrire | Disclaimer

   EN    FR    IT 

 










Légende :    VFR   VFR Marginal   IFR   IFR Intensif   IFR Très Intensif
Visi : 
Plafond : 
>= 8 km
>= 3000ft
5 à 8 km
1000 à 3000 ft
1500m à 5 km
500 à 1000 ft
800 à 1500m
200 à 500 ft
< 800m
< 200 ft
Symboles :   Orages  Brouillard  Fortes neiges  Fortes précipitations  Vent > 20 kt
SIGMETs :   Divers  Orages  Givrage  Turbulence  Onde Orograph.  Cendres Volcan.






- Altitude de l'aérodrome : -13 ft
- Code IATA : LEY


EHLE - Lelystad

DERNIER METAR :
  • 240225Z AUTO 21004KT 180V240 4300 BR OVC006 02/01 Q1025

METARs EXPIRÉS :
  • 240155Z AUTO 17004KT 140V200 4400 BR BKN006 OVC007 02/01 Q1025
  • 240125Z AUTO 16005KT 3400 BR FEW005 OVC007 02/02 Q1025
  • 240055Z AUTO 16004KT 3200 BR OVC007 02/01 Q1026
  • 240025Z AUTO 16003KT 120V190 7000 BR OVC007 02/01 Q1026
  • 232355Z AUTO 00000KT 3000 BR FEW006 OVC008 02/02 Q1026

TAF TAF EHLE
Valide du 24 à 00h jusqu'au 25 à 06h UTC


232306Z 2400/2506 18005KT 2500 BR BKN008
PROB30 2401/2409 0400 FG BKN001
BECMG 2409/2412 21006KT 6000 NSW BKN025
BECMG 2412/2414 9000
PROB30
TEMPO 2415/2506 4000 -DZ BR BKN012



MET'MAP, la Météo Aéronautique d'un coup d'oeil ! - Copyright ORBIFLY Décembre 2007 - Disclaimer

ORBIFLY MET'MAP TEAM :

Programmation & Développement : Alexandra Zaïnal
Sur une idée originale de : Baudouin d'Aumeries
Assistance à la programmation : Marc-Olivier Méhu
Soutien technique & logistique : Manuel Goepfert

Contact : metmap@orbifly.com




SOURCES & CREDITS :

   NOAA